Terminal Aerodrome Forecast
Issued by NWS Kansas City/Pleasant Hill, MO

Home | Current Version | Previous Version | Text Only | Print | Product List | Glossary On
Versions: 1 2 3 4 5 6 7 8 9 10 11 12
000
FTUS43 KEAX 141100
TAFMCI
TAF
KMCI 141120Z 1412/1512 15008KT P6SM SCT060 SCT200
     FM150200 15007KT P6SM BKN050
     FM150900 15008KT P6SM VCTS OVC040CB=

USA.gov is the U.S. government's official web portal to all federal, state and local government web resources and services.